createdAt,value
2022-12-23T00:00:46.754Z,21.02
2022-12-23T00:03:35.325Z,18.58
2022-12-23T00:06:22.709Z,19.83
2022-12-23T00:09:10.198Z,24.52
2022-12-23T00:12:24.904Z,21.77
2022-12-23T00:15:13.133Z,24.35
2022-12-23T00:18:00.441Z,21.65
2022-12-23T00:20:47.763Z,23.25
2022-12-23T00:23:35.348Z,21.10
2022-12-23T00:26:24.627Z,22.10
2022-12-23T00:29:13.594Z,20.33
2022-12-23T00:32:01.286Z,24.45
2022-12-23T00:34:48.813Z,25.83
2022-12-23T00:37:36.356Z,22.33
2022-12-23T00:40:41.320Z,23.45
2022-12-23T00:43:28.699Z,24.02
2022-12-23T00:46:17.945Z,23.17
2022-12-23T00:49:23.432Z,23.92
2022-12-23T00:52:15.645Z,20.50
2022-12-23T00:55:03.101Z,19.63
2022-12-23T00:57:50.536Z,22.42
2022-12-23T01:00:54.703Z,20.92
2022-12-23T01:04:00.906Z,18.63
2022-12-23T01:06:48.130Z,22.08
2022-12-23T01:09:37.845Z,23.30
2022-12-23T01:12:27.931Z,23.35
2022-12-23T01:15:18.400Z,21.98
2022-12-23T01:18:08.295Z,16.77
2022-12-23T01:21:05.160Z,14.73
2022-12-23T01:23:55.630Z,16.98
2022-12-23T01:26:46.274Z,13.63
2022-12-23T01:29:36.734Z,16.25
2022-12-23T01:32:26.956Z,18.90
2022-12-23T01:35:18.288Z,18.73
2022-12-23T01:38:10.575Z,20.88
2022-12-23T01:41:00.986Z,21.77
2022-12-23T01:43:52.310Z,21.20
2022-12-23T01:46:42.749Z,24.08
2022-12-23T01:49:32.987Z,22.02
2022-12-23T01:52:23.636Z,25.92
2022-12-23T01:55:15.048Z,24.02
2022-12-23T01:58:11.424Z,27.63
2022-12-23T02:01:19.124Z,21.55
2022-12-23T02:04:09.754Z,21.25
2022-12-23T02:07:16.158Z,25.90
2022-12-23T02:10:05.453Z,23.00
2022-12-23T02:13:02.525Z,26.33
2022-12-23T02:16:14.309Z,27.25
2022-12-23T02:19:12.776Z,28.23
2022-12-23T02:22:20.453Z,26.45
2022-12-23T02:25:25.979Z,27.65
2022-12-23T02:28:40.870Z,32.47
2022-12-23T02:31:39.747Z,26.65
2022-12-23T02:34:32.840Z,24.45
2022-12-23T02:37:26.069Z,25.95
2022-12-23T02:40:20.834Z,29.03
2022-12-23T02:43:15.280Z,25.95
2022-12-23T02:46:09.142Z,25.77
2022-12-23T02:48:58.623Z,23.17
2022-12-23T02:51:49.992Z,25.55
2022-12-23T02:54:41.886Z,26.90
2022-12-23T02:57:33.831Z,24.00
2022-12-23T03:00:22.427Z,18.52
2022-12-23T03:03:10.486Z,13.75
2022-12-23T03:05:59.558Z,22.10
2022-12-23T03:08:47.003Z,20.35
2022-12-23T03:11:46.594Z,19.77
2022-12-23T03:14:46.421Z,20.65
2022-12-23T03:17:48.025Z,21.20
2022-12-23T03:20:43.473Z,26.73
2022-12-23T03:23:38.409Z,25.92
2022-12-23T03:26:32.269Z,31.30
2022-12-23T03:29:25.217Z,27.48
2022-12-23T03:32:15.621Z,20.80
2022-12-23T03:35:05.553Z,31.25
2022-12-23T03:37:55.630Z,28.60
2022-12-23T03:40:49.479Z,30.30
2022-12-23T03:43:48.354Z,33.33
2022-12-23T03:46:41.341Z,30.25
2022-12-23T03:49:35.058Z,27.77
2022-12-23T03:52:26.229Z,32.50
2022-12-23T03:55:19.282Z,26.40
2022-12-23T03:58:15.383Z,29.50
2022-12-23T04:01:14.184Z,31.25
2022-12-23T04:04:04.907Z,32.67
2022-12-23T04:06:56.078Z,32.75
2022-12-23T04:09:44.316Z,28.13
2022-12-23T04:12:32.509Z,31.40
2022-12-23T04:15:22.647Z,22.45
2022-12-23T04:18:11.952Z,22.17
2022-12-23T04:20:59.369Z,21.58
2022-12-23T04:23:46.939Z,16.70
2022-12-23T04:26:34.575Z,22.23
2022-12-23T04:29:22.042Z,21.95
2022-12-23T04:32:11.571Z,29.48
2022-12-23T04:34:58.947Z,21.25
2022-12-23T04:37:46.640Z,16.83
2022-12-23T04:40:34.197Z,21.92
2022-12-23T04:43:21.750Z,23.92
2022-12-23T04:46:09.402Z,24.30
2022-12-23T04:48:58.351Z,21.63
2022-12-23T04:51:45.617Z,17.88
2022-12-23T04:54:33.232Z,21.48
2022-12-23T04:57:20.818Z,19.52
2022-12-23T05:00:09.796Z,17.83
2022-12-23T05:02:57.374Z,15.43
2022-12-23T05:05:46.283Z,15.88
2022-12-23T05:08:33.922Z,14.70
2022-12-23T05:11:21.149Z,18.42
2022-12-23T05:14:10.363Z,14.75
2022-12-23T05:17:00.877Z,16.63
2022-12-23T05:19:52.699Z,12.75
2022-12-23T05:22:41.605Z,18.00
2022-12-23T05:25:29.387Z,18.67
2022-12-23T05:28:16.918Z,19.15
2022-12-23T05:31:06.740Z,20.52
2022-12-23T05:33:54.425Z,20.30
2022-12-23T05:36:41.828Z,23.30
2022-12-23T05:39:30.796Z,18.92
2022-12-23T05:42:19.482Z,20.73
2022-12-23T05:45:07.098Z,21.23
2022-12-23T05:47:54.130Z,20.48
2022-12-23T05:50:41.933Z,25.70
2022-12-23T05:53:28.986Z,21.08
2022-12-23T05:56:17.752Z,22.08
2022-12-23T05:59:05.451Z,22.17
2022-12-23T06:01:53.105Z,20.27
2022-12-23T06:04:40.575Z,19.13
2022-12-23T06:07:27.957Z,17.55
2022-12-23T06:10:15.538Z,24.20
2022-12-23T06:13:04.451Z,16.60
2022-12-23T06:15:51.889Z,26.65
2022-12-23T06:18:39.436Z,21.58
2022-12-23T06:21:27.023Z,19.98
2022-12-23T06:24:14.632Z,23.00
2022-12-23T06:27:02.138Z,24.60
2022-12-23T06:29:51.221Z,24.05
2022-12-23T06:32:39.120Z,28.48
2022-12-23T06:35:26.836Z,31.00
2022-12-23T06:38:14.501Z,28.38
2022-12-23T06:41:02.054Z,26.20
2022-12-23T06:43:54.148Z,29.95
2022-12-23T06:46:43.594Z,29.85
2022-12-23T06:49:31.296Z,31.98
2022-12-23T06:52:18.638Z,29.38
2022-12-23T06:55:06.931Z,30.58
2022-12-23T06:57:54.585Z,31.08
2022-12-23T07:00:42.298Z,32.80
2022-12-23T07:03:30.838Z,29.75
2022-12-23T07:06:19.405Z,33.67
2022-12-23T07:09:07.419Z,28.05
2022-12-23T07:11:54.844Z,35.10
2022-12-23T07:14:42.342Z,30.30
2022-12-23T07:17:29.814Z,29.45
2022-12-23T07:20:17.000Z,28.17
2022-12-23T07:23:05.703Z,30.92
2022-12-23T07:25:53.621Z,34.13
2022-12-23T07:28:41.233Z,34.35
2022-12-23T07:31:29.115Z,33.65
2022-12-23T07:34:16.745Z,28.30
2022-12-23T07:37:04.204Z,29.02
2022-12-23T07:39:53.232Z,28.08
2022-12-23T07:42:46.114Z,28.45
2022-12-23T07:45:34.632Z,27.63
2022-12-23T07:48:22.074Z,22.05
2022-12-23T07:51:10.161Z,33.35
2022-12-23T07:53:58.036Z,22.33
2022-12-23T07:56:46.891Z,27.67
2022-12-23T07:59:34.336Z,21.35
2022-12-23T08:02:25.513Z,22.63
2022-12-23T08:05:14.209Z,26.33
2022-12-23T08:08:01.589Z,21.77
2022-12-23T08:10:49.203Z,25.23
2022-12-23T08:13:39.639Z,26.63
2022-12-23T08:16:27.248Z,18.63
2022-12-23T08:19:14.777Z,23.13
2022-12-23T08:22:02.411Z,35.22
2022-12-23T08:24:49.863Z,28.88
2022-12-23T08:27:37.547Z,25.63
2022-12-23T08:30:26.623Z,29.35
2022-12-23T08:33:14.055Z,30.40
2022-12-23T08:36:02.089Z,26.55
2022-12-23T08:38:49.488Z,30.48
2022-12-23T08:41:38.809Z,26.23
2022-12-23T08:44:28.345Z,28.23
2022-12-23T08:47:17.318Z,32.75
2022-12-23T08:50:05.216Z,27.00
2022-12-23T08:52:52.776Z,28.70
2022-12-23T08:55:40.487Z,27.80
2022-12-23T08:58:27.763Z,27.25
2022-12-23T09:01:17.345Z,26.17
2022-12-23T09:04:07.434Z,28.40
2022-12-23T09:06:55.032Z,31.02
2022-12-23T09:09:42.651Z,33.72
2022-12-23T09:12:30.500Z,25.90
2022-12-23T09:15:18.001Z,29.17
2022-12-23T09:18:05.596Z,26.90
2022-12-23T09:21:00.110Z,21.38
2022-12-23T09:23:47.531Z,19.65
2022-12-23T09:26:35.408Z,17.67
2022-12-23T09:29:23.294Z,16.50
2022-12-23T09:32:10.854Z,22.00
2022-12-23T09:34:58.805Z,19.88
2022-12-23T09:37:47.758Z,27.77
2022-12-23T09:40:37.258Z,18.15
2022-12-23T09:43:34.334Z,23.42
2022-12-23T09:46:25.111Z,25.48
2022-12-23T09:49:14.475Z,27.80
2022-12-23T09:52:05.923Z,27.80
2022-12-23T09:54:56.535Z,27.13
2022-12-23T09:57:52.616Z,23.92
2022-12-23T10:00:44.377Z,28.75
2022-12-23T10:03:39.244Z,27.63
2022-12-23T10:06:28.344Z,27.05
2022-12-23T10:09:17.935Z,25.45
2022-12-23T10:12:15.071Z,28.00
2022-12-23T10:15:03.660Z,30.48
2022-12-23T10:17:55.707Z,38.20
2022-12-23T10:20:45.813Z,26.48
2022-12-23T10:23:36.993Z,31.17
2022-12-23T10:26:27.203Z,27.42
2022-12-23T10:29:19.984Z,37.45
2022-12-23T10:32:18.685Z,36.22
2022-12-23T10:35:15.658Z,32.50
2022-12-23T10:38:22.115Z,33.03
2022-12-23T10:41:20.619Z,38.05
2022-12-23T10:44:33.358Z,34.47
2022-12-23T10:47:29.078Z,33.10
2022-12-23T10:50:27.960Z,38.53
2022-12-23T10:53:26.206Z,33.85
2022-12-23T10:56:14.725Z,31.75
2022-12-23T10:59:02.848Z,30.67
2022-12-23T11:01:59.769Z,29.83
2022-12-23T11:04:49.070Z,25.60
2022-12-23T11:07:45.484Z,23.23
2022-12-23T11:10:34.650Z,24.33
2022-12-23T11:13:35.727Z,19.75
2022-12-23T11:16:25.735Z,22.60
2022-12-23T11:19:17.400Z,15.68
2022-12-23T11:22:04.740Z,16.33
2022-12-23T11:24:52.472Z,18.42
2022-12-23T11:27:44.504Z,13.85
2022-12-23T11:30:34.081Z,12.95
2022-12-23T11:33:23.592Z,14.10
2022-12-23T11:36:18.887Z,17.90
2022-12-23T11:39:20.867Z,14.70
2022-12-23T11:42:13.597Z,13.13
2022-12-23T11:45:01.735Z,12.73
2022-12-23T11:47:50.245Z,14.20
2022-12-23T11:50:39.786Z,12.60
2022-12-23T11:53:29.270Z,13.18
2022-12-23T11:56:16.756Z,16.13
2022-12-23T11:59:08.001Z,11.30
2022-12-23T12:01:58.565Z,11.55
2022-12-23T12:04:56.472Z,14.38
2022-12-23T12:07:44.801Z,14.80
2022-12-23T12:10:35.091Z,12.52
2022-12-23T12:13:27.621Z,10.85
2022-12-23T12:16:28.246Z,12.85
2022-12-23T12:19:23.174Z,11.25
2022-12-23T12:22:15.432Z,15.38
2022-12-23T12:25:12.993Z,11.25
2022-12-23T12:28:05.492Z,10.32
2022-12-23T12:30:57.682Z,13.60
2022-12-23T12:33:50.557Z,10.88
2022-12-23T12:36:43.532Z,10.52
2022-12-23T12:39:32.410Z,11.20
2022-12-23T12:42:25.920Z,9.73
2022-12-23T12:45:21.811Z,10.35
2022-12-23T12:48:23.842Z,9.68
2022-12-23T12:51:18.056Z,8.88
2022-12-23T12:54:14.786Z,8.38
2022-12-23T12:57:04.112Z,7.10
2022-12-23T12:59:59.904Z,8.23
2022-12-23T13:03:12.393Z,9.75
2022-12-23T13:06:13.059Z,6.82
2022-12-23T13:09:10.922Z,11.07
2022-12-23T13:12:05.092Z,7.15
2022-12-23T13:17:51.203Z,7.38
2022-12-23T13:20:45.832Z,8.60
2022-12-23T13:23:44.777Z,6.18
2022-12-23T13:26:38.359Z,5.80
2022-12-23T13:29:38.360Z,8.77
2022-12-23T13:32:39.390Z,8.52
2022-12-23T13:35:36.579Z,5.25
2022-12-23T13:38:41.525Z,6.75
2022-12-23T13:41:32.528Z,6.18
2022-12-23T13:44:20.873Z,6.53
2022-12-23T13:47:16.912Z,5.78
2022-12-23T13:50:12.202Z,7.20
2022-12-23T13:53:11.466Z,7.97
2022-12-23T13:56:10.912Z,8.77
2022-12-23T13:58:59.177Z,6.13
2022-12-23T14:01:49.365Z,7.30
2022-12-23T14:04:37.700Z,10.15
2022-12-23T14:07:25.443Z,7.80
2022-12-23T14:10:21.761Z,6.28
2022-12-23T14:13:16.593Z,7.22
2022-12-23T14:16:19.761Z,4.53
2022-12-23T14:19:32.761Z,6.25
2022-12-23T14:22:35.638Z,5.03
2022-12-23T14:25:36.118Z,5.70
2022-12-23T14:28:35.133Z,4.47
2022-12-23T14:31:36.018Z,5.35
2022-12-23T14:34:28.953Z,5.95
2022-12-23T14:37:33.385Z,4.63
2022-12-23T14:40:50.855Z,2.90
2022-12-23T14:43:56.032Z,3.03
2022-12-23T14:46:57.794Z,4.50
2022-12-23T14:49:45.558Z,4.75
2022-12-23T14:52:49.115Z,3.33
2022-12-23T14:55:47.026Z,4.55
2022-12-23T14:59:00.495Z,2.85
2022-12-23T15:01:51.024Z,2.60
2022-12-23T15:04:45.394Z,3.67
2022-12-23T15:07:36.289Z,4.03
2022-12-23T15:10:25.841Z,3.83
2022-12-23T15:13:18.243Z,3.78
2022-12-23T15:16:07.257Z,3.38
2022-12-23T15:18:55.966Z,3.90
2022-12-23T15:21:46.886Z,4.15
2022-12-23T15:24:36.736Z,5.47
2022-12-23T15:27:27.658Z,8.85
2022-12-23T15:30:16.999Z,6.65
2022-12-23T15:33:35.044Z,6.65
2022-12-23T15:36:19.699Z,7.65
2022-12-23T15:39:11.041Z,10.25
2022-12-23T15:41:58.835Z,8.98
2022-12-23T15:44:46.234Z,12.18
2022-12-23T15:47:39.832Z,11.68
2022-12-23T15:50:29.728Z,13.70
2022-12-23T15:53:18.319Z,12.10
2022-12-23T15:56:08.983Z,14.82
2022-12-23T15:58:57.769Z,15.60
2022-12-23T16:01:45.373Z,15.93
2022-12-23T16:04:33.167Z,14.63
2022-12-23T16:07:27.598Z,17.58
2022-12-23T16:10:16.951Z,20.10
2022-12-23T16:13:04.452Z,22.55
2022-12-23T16:15:52.112Z,25.70
2022-12-23T16:18:47.607Z,18.30
2022-12-23T16:21:37.979Z,20.02
2022-12-23T16:24:27.043Z,23.08
2022-12-23T16:27:17.564Z,22.08
2022-12-23T16:30:11.364Z,22.02
2022-12-23T16:33:02.233Z,25.15
2022-12-23T16:35:49.703Z,23.90
2022-12-23T16:38:37.096Z,20.20
2022-12-23T16:41:26.125Z,17.88
2022-12-23T16:44:13.794Z,21.70
2022-12-23T16:47:07.998Z,15.55
2022-12-23T16:49:55.639Z,22.27
2022-12-23T16:52:43.390Z,21.10
2022-12-23T16:55:30.963Z,24.65
2022-12-23T16:58:19.931Z,20.90
2022-12-23T17:01:07.877Z,28.65
2022-12-23T17:03:55.918Z,26.30
2022-12-23T17:06:43.351Z,22.85
2022-12-23T17:09:31.011Z,22.98
2022-12-23T17:12:18.496Z,18.90
2022-12-23T17:15:08.266Z,14.52
2022-12-23T17:17:56.251Z,11.27
2022-12-23T17:20:46.016Z,10.07
2022-12-23T17:23:33.776Z,9.13
2022-12-23T17:26:20.866Z,6.90
2022-12-23T17:29:08.075Z,7.80
2022-12-23T17:31:57.003Z,8.63
2022-12-23T17:34:44.586Z,10.10
2022-12-23T17:37:31.928Z,8.30
2022-12-23T17:40:20.619Z,12.52
2022-12-23T17:43:10.712Z,10.80
2022-12-23T17:45:58.220Z,9.98
2022-12-23T17:48:47.949Z,8.68
2022-12-23T17:51:40.988Z,9.48
2022-12-23T17:54:29.006Z,8.48
2022-12-23T17:57:20.141Z,14.35
2022-12-23T18:00:09.192Z,17.88
2022-12-23T18:02:56.493Z,11.10
2022-12-23T18:05:45.189Z,10.95
2022-12-23T18:08:32.805Z,7.95
2022-12-23T18:11:23.571Z,11.00
2022-12-23T18:14:17.320Z,8.95
2022-12-23T18:17:05.025Z,11.25
2022-12-23T18:19:52.833Z,10.02
2022-12-23T18:22:41.789Z,8.30
2022-12-23T18:25:29.434Z,10.57
2022-12-23T18:28:17.224Z,12.38
2022-12-23T18:31:05.252Z,13.38
2022-12-23T18:33:53.098Z,10.50
2022-12-23T18:36:40.817Z,8.70
2022-12-23T18:39:29.599Z,4.70
2022-12-23T18:42:19.101Z,10.75
2022-12-23T18:45:22.292Z,13.60
2022-12-23T18:48:10.591Z,13.38
2022-12-23T18:50:58.071Z,9.65
2022-12-23T18:53:46.296Z,10.50
2022-12-23T18:56:35.037Z,10.95
2022-12-23T18:59:30.012Z,13.05
2022-12-23T19:02:17.908Z,10.07
2022-12-23T19:05:07.382Z,10.68
2022-12-23T19:07:56.173Z,13.60
2022-12-23T19:10:45.971Z,8.23
2022-12-23T19:13:34.741Z,13.75
2022-12-23T19:16:22.782Z,15.80
2022-12-23T19:19:12.531Z,16.55
2022-12-23T19:21:59.796Z,20.27
2022-12-23T19:25:04.713Z,13.90
2022-12-23T19:27:53.633Z,15.73
2022-12-23T19:30:43.031Z,16.98
2022-12-23T19:33:30.602Z,13.55
2022-12-23T19:36:23.807Z,12.18
2022-12-23T19:39:16.613Z,17.23
2022-12-23T19:42:04.628Z,24.20
2022-12-23T19:44:52.644Z,13.85
2022-12-23T19:47:41.338Z,11.73
2022-12-23T19:50:29.064Z,21.27
2022-12-23T19:53:16.807Z,22.25
2022-12-23T19:56:06.226Z,17.15
2022-12-23T19:58:53.660Z,18.23
2022-12-23T20:01:41.454Z,19.17
2022-12-23T20:04:32.002Z,10.80
2022-12-23T20:07:19.531Z,25.27
2022-12-23T20:10:08.592Z,19.23
2022-12-23T20:12:55.879Z,18.90
2022-12-23T20:15:43.575Z,14.82
2022-12-23T20:18:30.795Z,13.95
2022-12-23T20:21:19.826Z,16.85
2022-12-23T20:24:08.168Z,15.63
2022-12-23T20:26:55.580Z,22.98
2022-12-23T20:29:43.070Z,13.05
2022-12-23T20:32:30.708Z,15.77
2022-12-23T20:35:18.398Z,12.32
2022-12-23T20:38:07.741Z,15.35
2022-12-23T20:40:55.602Z,12.88
2022-12-23T20:43:46.097Z,13.55
2022-12-23T20:46:40.158Z,17.15
2022-12-23T20:49:27.396Z,16.75
2022-12-23T20:52:14.861Z,14.20
2022-12-23T20:55:03.936Z,15.82
2022-12-23T20:57:51.500Z,14.60
2022-12-23T21:00:39.015Z,17.50
2022-12-23T21:03:26.660Z,13.98
2022-12-23T21:06:14.205Z,16.52
2022-12-23T21:09:02.610Z,22.08
2022-12-23T21:11:51.619Z,18.05
2022-12-23T21:14:39.450Z,22.60
2022-12-23T21:17:27.133Z,19.58
2022-12-23T21:20:14.582Z,20.08
2022-12-23T21:23:01.964Z,12.52
2022-12-23T21:25:49.508Z,13.80
2022-12-23T21:28:39.143Z,19.77
2022-12-23T21:31:27.413Z,16.98
2022-12-23T21:34:15.604Z,16.98
2022-12-23T21:37:03.230Z,24.17
2022-12-23T21:39:50.596Z,19.15
2022-12-23T21:42:38.128Z,21.65
2022-12-23T21:45:27.030Z,10.57
2022-12-23T21:48:14.611Z,13.75
2022-12-23T21:51:06.905Z,11.40
2022-12-23T21:53:56.496Z,11.25
2022-12-23T21:56:43.712Z,13.13
2022-12-23T21:59:35.149Z,16.50
2022-12-23T22:02:24.480Z,12.45
2022-12-23T22:05:11.835Z,15.90
2022-12-23T22:07:59.471Z,20.40
2022-12-23T22:10:48.517Z,18.15
2022-12-23T22:13:36.526Z,10.32
2022-12-23T22:16:25.777Z,16.08
2022-12-23T22:19:14.868Z,17.42
2022-12-23T22:22:02.602Z,16.75
2022-12-23T22:24:50.136Z,10.13
2022-12-23T22:27:37.702Z,16.80
2022-12-23T22:30:25.268Z,17.85
2022-12-23T22:33:12.936Z,11.15
2022-12-23T22:36:01.805Z,9.77
2022-12-23T22:38:53.323Z,22.75
2022-12-23T22:41:40.523Z,10.75
2022-12-23T22:44:28.105Z,14.85
2022-12-23T22:47:15.699Z,14.52
2022-12-23T22:50:03.207Z,14.02
2022-12-23T22:52:52.227Z,17.77
2022-12-23T22:55:39.746Z,14.32
2022-12-23T22:58:27.799Z,10.85
2022-12-23T23:01:22.355Z,6.97
2022-12-23T23:04:11.424Z,8.23
2022-12-23T23:06:58.963Z,20.58
2022-12-23T23:09:48.112Z,19.75
2022-12-23T23:12:35.419Z,15.00
2022-12-23T23:15:23.060Z,7.90
2022-12-23T23:18:10.588Z,11.93
2022-12-23T23:20:58.434Z,20.63
2022-12-23T23:23:46.486Z,11.57
2022-12-23T23:26:35.330Z,14.68
2022-12-23T23:29:22.833Z,19.98
2022-12-23T23:32:10.590Z,17.42
2022-12-23T23:34:57.835Z,23.73
2022-12-23T23:37:45.551Z,13.50
2022-12-23T23:40:33.007Z,15.07
2022-12-23T23:43:22.175Z,9.93
2022-12-23T23:46:09.503Z,14.15
2022-12-23T23:48:56.885Z,13.82
2022-12-23T23:51:44.498Z,18.88
2022-12-23T23:54:31.961Z,14.45
2022-12-23T23:57:19.256Z,11.98
